Weather History for Eastman, GA

Change the Weather History Date:

Friday, January 18, 2013

  Actual Average Record
Temperature  
Mean Temperature 46 °F -  
Max Temperature 59 °F 58 °F 59 °F (2013)
Min Temperature 31 °F 35 °F 31 °F (2013)
Degree Days  
Heating Degree Days 20    
Moisture  
Dew Point 32 °F    
Average Humidity 67    
Maximum Humidity 98    
Minimum Humidity 23    
Precipitation  
Precipitation 0.00 in - - ()
Sea Level Pressure  
Sea Level Pressure 30.43 in    
Wind  
Wind Speed 5 mph (NNE)    
Max Wind Speed 13 mph    
Max Gust Speed 20 mph    
Visibility 10 miles    
Events      
Averages and records for this station are not official NWS values.
T = Trace of Precipitation, MM = Missing Value Source: NWS Daily Summary

Daily Weather History Graph

Daily Weather History Graph

Search for Another Location

Airport:

Trip Planner

Search our weather history database for the weather conditions in past years. The results will help you decide how hot, cold, wet, or windy it might be!

Date:

Astronomy

Jan. 18, 2013 Rise Set
Actual Time 7:33 AM EST 5:53 PM EST
Civil Twilight 7:06 AM EST 6:19 PM EST
Nautical Twilight 6:36 AM EST 6:49 PM EST
Astronomical Twilight 6:07 AM EST 7:19 PM EST
Moon 11:39 AM EST 12:15 AM EST
Length of Visible Light 11h 13m
Length of Day
10h 20m
Waxing Crescent, 47% of the Moon is Illuminated
Jan 18
Waxing Crescent
Jan 18
First Quarter
Jan 26
Full
Feb 3
Last Quarter
Feb 10
New

Hourly Weather History & Observations

Time (EST) Temp. Windchill Dew Point Humidity Pressure Visibility Wind Dir Wind Speed Gust Speed Precip Events Conditions
12:15 AM 43.0 °F 41.3 °F 36.9 °F 79% 30.23 in 10.0 mi North 3.5 mph - N/A   Scattered Clouds
12:35 AM 43.3 °F 41.7 °F 37.4 °F 80% 30.23 in 10.0 mi North 3.5 mph - N/A   Clear
12:55 AM 43.7 °F 39.7 °F 37.9 °F 80% 30.23 in 10.0 mi North 6.9 mph - N/A   Clear
1:15 AM 43.9 °F 39.9 °F 38.3 °F 81% 30.24 in 10.0 mi North 6.9 mph - N/A   Clear
1:35 AM 44.2 °F 39.7 °F 38.7 °F 81% 30.25 in 10.0 mi North 8.1 mph - N/A   Clear
1:55 AM 44.6 °F 40.7 °F 38.8 °F 80% 30.26 in 10.0 mi NNE 6.9 mph 16.1 mph N/A   Clear
2:15 AM 44.6 °F 40.2 °F 38.8 °F 80% 30.27 in 10.0 mi North 8.1 mph - N/A   Clear
2:35 AM 44.2 °F 39.7 °F 38.8 °F 81% 30.28 in 10.0 mi NNE 8.1 mph - N/A   Clear
2:55 AM 43.9 °F 39.9 °F 38.8 °F 82% 30.30 in 10.0 mi NNE 6.9 mph - N/A   Clear
3:15 AM 43.2 °F 39.7 °F 38.7 °F 84% 30.30 in 10.0 mi North 5.8 mph - N/A   Clear
3:35 AM 43.0 °F 38.8 °F 38.8 °F 85% 30.31 in 10.0 mi North 6.9 mph - N/A   Clear
3:55 AM 42.8 °F 40.1 °F 38.7 °F 85% 30.32 in 10.0 mi NNE 4.6 mph - N/A   Clear
4:15 AM 42.3 °F 39.4 °F 38.5 °F 86% 30.33 in 10.0 mi North 4.6 mph - N/A   Clear
4:35 AM 41.7 °F 38.8 °F 38.3 °F 88% 30.33 in 10.0 mi North 4.6 mph - N/A   Clear
4:55 AM 41.0 °F 38.0 °F 37.9 °F 89% 30.34 in 10.0 mi NNE 4.6 mph - N/A   Clear
5:15 AM 40.8 °F 38.8 °F 37.9 °F 89% 30.35 in 10.0 mi North 3.5 mph - N/A   Clear
5:35 AM 40.3 °F 38.2 °F 37.8 °F 91% 30.36 in 10.0 mi North 3.5 mph - N/A   Clear
5:55 AM 39.6 °F 37.4 °F 37.4 °F 92% 30.37 in 10.0 mi North 3.5 mph - N/A   Clear
6:15 AM 39.2 °F 37.0 °F 37.0 °F 92% 30.38 in 10.0 mi North 3.5 mph - N/A   Clear
6:35 AM 38.3 °F 35.9 °F 36.9 °F 95% 30.39 in 10.0 mi North 3.5 mph - N/A   Clear
7:15 AM 37.4 °F 34.9 °F 36.3 °F 96% 30.41 in 10.0 mi North 3.5 mph - N/A   Clear
7:35 AM 36.5 °F 33.9 °F 35.4 °F 96% 30.42 in 7.0 mi North 3.5 mph - N/A   Clear
7:55 AM 37.0 °F 34.5 °F 36.0 °F 96% 30.43 in 10.0 mi North 3.5 mph - N/A   Clear
8:15 AM 37.9 °F 35.5 °F 36.7 °F 95% 30.44 in 10.0 mi North 3.5 mph - N/A   Clear
8:35 AM 39.9 °F 37.8 °F 37.9 °F 93% 30.45 in 10.0 mi NNE 3.5 mph - N/A   Clear
8:55 AM 42.4 °F 38.1 °F 38.8 °F 87% 30.47 in 10.0 mi NNE 6.9 mph - N/A   Clear
9:15 AM 43.9 °F 39.9 °F 39.0 °F 83% 30.48 in 10.0 mi NNE 6.9 mph - N/A   Clear
9:35 AM 45.9 °F 41.2 °F 38.8 °F 76% 30.49 in 10.0 mi ENE 9.2 mph - N/A   Clear
9:55 AM 47.3 °F - 38.8 °F 72% 30.50 in 10.0 mi NE 6.9 mph - N/A   Clear
10:15 AM 48.7 °F - 37.9 °F 66% 30.51 in 10.0 mi NE 10.4 mph 16.1 mph N/A   Clear
10:35 AM 49.6 °F - 36.3 °F 60% 30.51 in 10.0 mi NE 10.4 mph - N/A   Clear
10:55 AM 51.1 °F - 34.5 °F 53% 30.51 in 10.0 mi NNE 10.4 mph - N/A   Clear
11:15 AM 52.2 °F - 32.2 °F 47% 30.50 in 10.0 mi NNE 9.2 mph 16.1 mph N/A   Clear
11:35 AM 53.2 °F - 31.6 °F 44% 30.49 in 10.0 mi NE 8.1 mph - N/A   Clear
11:55 AM 54.5 °F - 31.6 °F 42% 30.49 in 10.0 mi North 8.1 mph - N/A   Clear
12:15 PM 54.7 °F - 31.6 °F 42% 30.48 in 10.0 mi NE 9.2 mph 17.3 mph N/A   Clear
12:35 PM 56.1 °F - 28.8 °F 35% 30.48 in 10.0 mi NE 10.4 mph 17.3 mph N/A   Clear
12:55 PM 56.5 °F - 27.7 °F 33% 30.47 in 10.0 mi NE 8.1 mph - N/A   Clear
1:15 PM 56.5 °F - 27.3 °F 33% 30.46 in 10.0 mi NNE 11.5 mph - N/A   Clear
1:35 PM 58.1 °F - 26.1 °F 29% 30.46 in 10.0 mi East 9.2 mph - N/A   Clear
1:55 PM 58.1 °F - 25.0 °F 28% 30.45 in 10.0 mi ENE 5.8 mph 19.6 mph N/A   Clear
2:15 PM 58.8 °F - 23.9 °F 26% 30.45 in 10.0 mi NE 8.1 mph 16.1 mph N/A   Clear
2:35 PM 59.5 °F - 21.9 °F 23% 30.45 in 10.0 mi ENE 11.5 mph 18.4 mph N/A   Clear
2:55 PM 59.4 °F - 22.5 °F 24% 30.45 in 10.0 mi NE 10.4 mph 17.3 mph N/A   Clear
3:15 PM 59.4 °F - 21.6 °F 23% 30.45 in 10.0 mi NNE 10.4 mph 17.3 mph N/A   Clear
3:35 PM 59.5 °F - 22.1 °F 24% 30.45 in 10.0 mi NE 10.4 mph - N/A   Clear
3:55 PM 59.0 °F - 21.6 °F 24% 30.45 in 10.0 mi ENE 8.1 mph - N/A   Clear
4:15 PM 59.0 °F - 20.8 °F 23% 30.45 in 10.0 mi NE 12.7 mph - N/A   Clear
4:35 PM 58.3 °F - 20.8 °F 23% 30.45 in 10.0 mi NE 9.2 mph - N/A   Clear
4:55 PM 57.9 °F - 22.3 °F 25% 30.45 in 10.0 mi NE 9.2 mph - N/A   Clear
5:15 PM 56.7 °F - 20.8 °F 25% 30.46 in 10.0 mi East 6.9 mph - N/A   Clear
5:35 PM 55.0 °F - 22.3 °F 28% 30.46 in 10.0 mi NE 5.8 mph - N/A   Clear
5:55 PM 51.6 °F - 24.3 °F 34% 30.47 in 10.0 mi NE 3.5 mph - N/A   Clear
6:15 PM 51.3 °F - 25.3 °F 37% 30.47 in 10.0 mi NE 3.5 mph - N/A   Clear
6:35 PM 47.8 °F - 28.2 °F 47% 30.48 in 10.0 mi Calm Calm - N/A   Clear
6:55 PM 45.3 °F - 30.7 °F 57% 30.49 in 10.0 mi Calm Calm - N/A   Clear
7:15 PM 42.8 °F - 34.2 °F 72% 30.49 in 10.0 mi Calm Calm - N/A   Clear
7:35 PM 40.8 °F - 33.1 °F 74% 30.49 in 10.0 mi Calm Calm - N/A   Clear
7:55 PM 39.7 °F - 33.4 °F 78% 30.49 in 10.0 mi Calm Calm - N/A   Clear
8:15 PM 38.7 °F - 34.0 °F 83% 30.49 in 10.0 mi Calm Calm - N/A   Clear
8:35 PM 36.9 °F - 33.3 °F 87% 30.49 in 10.0 mi Calm Calm - N/A   Clear
8:55 PM 36.3 °F - 33.1 °F 88% 30.49 in 10.0 mi Calm Calm - N/A   Clear
9:15 PM 35.6 °F - 32.9 °F 90% 30.50 in 10.0 mi Calm Calm - N/A   Clear
9:35 PM 35.1 °F - 32.9 °F 92% 30.50 in 10.0 mi Calm Calm - N/A   Clear
9:55 PM 34.2 °F - 32.7 °F 94% 30.50 in 10.0 mi Calm Calm - N/A   Clear
10:15 PM 33.6 °F - 32.0 °F 94% 30.50 in 10.0 mi Calm Calm - N/A   Clear
10:35 PM 32.5 °F - 31.8 °F 97% 30.50 in 10.0 mi Calm Calm - N/A   Clear
10:55 PM 32.0 °F - 31.1 °F 96% 30.50 in 10.0 mi Calm Calm - N/A   Clear
11:15 PM 32.0 °F - 31.5 °F 98% 30.50 in 10.0 mi Calm Calm - N/A   Clear
11:35 PM 32.0 °F - 31.5 °F 98% 30.50 in 10.0 mi Calm Calm - N/A   Clear
11:55 PM 31.3 °F - 30.2 °F 96% 30.49 in 10.0 mi Calm Calm - N/A   Clear